Airfield :
LOGIN :

Register | Disclaimer

   EN    FR    IT 

 










Legend :    VFR   Marginal VFR   IFR   Intensive IFR   Very Intensive IFR
Visi :
Ceiling :
>= 8 km
>= 3000ft
5 to 8 km
1000 to 3000 ft
1500m to 5 km
500 to 1000 ft
800 to 1500m
200 to 500 ft
< 800m
< 200 ft
Symbols :   Thunderstorms  Fog  Heavy snow  Heavy precipitations  Wind > 20 kt
SIGMETs :     Misc.  Thunderstorms  Icing  Turbulence  Mountain Waves  Volcanic Ashes







- Airport Elevation : 75 ft
- IATA code : MRH


EGYM - RAF Marham

CURRENT METAR :
  • 121550Z 12006KT 9999 FEW040 05/M01 Q1022 BLU NOSIG

EXPIRED METARs :
  • 121450Z 14009KT 9999 FEW038 06/M01 Q1023 BLU NOSIG
  • 121350Z 15011KT 9999 FEW035 07/M01 Q1023 BLU NOSIG
  • 121250Z 14011KT 9999 FEW030 07/M01 Q1023 BLU NOSIG

TAF TAF EGYM
Valid from the 12 at 15:00 until the 12 at 21:00 UTC


121340Z 1215/1221 13012KT 9999 FEW030
No reported NOTAMs for that airfield.



MET'MAP, your aeronautical weather chart ! - Copyright ORBIFLY December 2007 - Disclaimer

ORBIFLY MET'MAP TEAM :

Programming & Development : Alexandra Zaïnal
Concept & Development : Baudouin d'Aumeries
Co-Development & Prog : Marc-Olivier Méhu
Technical & hardware support : Manuel Goepfert

Contact : metmap@orbifly.com




SOURCES & CREDITS :

   NOAA